createdAt,value
2023-03-12T00:00:04.346Z,6.50
2023-03-12T00:02:54.837Z,5.75
2023-03-12T00:05:42.341Z,5.20
2023-03-12T00:08:28.794Z,5.90
2023-03-12T00:11:17.206Z,5.60
2023-03-12T00:14:03.967Z,5.40
2023-03-12T00:16:51.670Z,5.45
2023-03-12T00:19:37.994Z,5.50
2023-03-12T00:22:25.627Z,5.20
2023-03-12T00:25:14.831Z,4.50
2023-03-12T00:28:01.212Z,5.25
2023-03-12T00:30:47.490Z,5.00
2023-03-12T00:33:35.233Z,4.40
2023-03-12T00:36:24.994Z,4.70
2023-03-12T00:39:11.490Z,4.70
2023-03-12T00:41:57.928Z,3.97
2023-03-12T00:44:44.448Z,4.70
2023-03-12T00:47:31.426Z,5.35
2023-03-12T00:50:19.364Z,4.30
2023-03-12T00:53:06.118Z,4.70
2023-03-12T00:55:52.722Z,4.93
2023-03-12T00:58:39.127Z,4.25
2023-03-12T01:01:27.573Z,4.78
2023-03-12T01:04:14.401Z,5.20
2023-03-12T01:07:02.293Z,5.05
2023-03-12T01:09:48.855Z,4.40
2023-03-12T01:12:35.451Z,4.63
2023-03-12T01:15:21.960Z,4.10
2023-03-12T01:18:08.430Z,4.10
2023-03-12T01:20:55.232Z,4.22
2023-03-12T01:23:42.850Z,4.07
2023-03-12T01:26:29.273Z,3.92
2023-03-12T01:29:15.699Z,4.55
2023-03-12T01:32:02.067Z,3.60
2023-03-12T01:34:48.593Z,4.00
2023-03-12T01:37:35.381Z,3.63
2023-03-12T01:40:27.803Z,4.05
2023-03-12T01:43:25.792Z,4.50
2023-03-12T01:46:25.339Z,3.92
2023-03-12T01:49:16.991Z,3.78
2023-03-12T01:55:02.595Z,3.25
2023-03-12T01:57:56.184Z,3.42
2023-03-12T02:00:42.804Z,3.70
2023-03-12T02:03:30.034Z,3.97
2023-03-12T02:06:20.270Z,4.05
2023-03-12T02:09:08.790Z,3.67
2023-03-12T02:11:55.207Z,3.47
2023-03-12T02:14:43.798Z,3.45
2023-03-12T02:17:31.264Z,3.67
2023-03-12T02:20:23.402Z,3.50
2023-03-12T02:23:13.655Z,3.20
2023-03-12T02:26:03.347Z,3.60
2023-03-12T02:28:51.403Z,3.97
2023-03-12T02:31:41.823Z,3.60
2023-03-12T02:34:28.020Z,3.72
2023-03-12T02:37:14.189Z,3.50
2023-03-12T02:40:06.005Z,3.45
2023-03-12T02:42:55.400Z,4.10
2023-03-12T02:45:42.153Z,3.88
2023-03-12T02:48:31.345Z,4.32
2023-03-12T02:51:17.779Z,3.90
2023-03-12T02:54:03.958Z,3.70
2023-03-12T02:56:50.755Z,4.20
2023-03-12T02:59:39.150Z,3.40
2023-03-12T03:02:26.956Z,3.40
2023-03-12T03:05:13.839Z,3.33
2023-03-12T03:08:00.633Z,3.15
2023-03-12T03:10:47.510Z,3.60
2023-03-12T03:13:34.657Z,3.30
2023-03-12T03:16:23.579Z,2.90
2023-03-12T03:19:11.246Z,3.10
2023-03-12T03:21:57.656Z,3.53
2023-03-12T03:24:43.881Z,3.10
2023-03-12T03:27:37.228Z,3.70
2023-03-12T03:30:23.856Z,3.20
2023-03-12T03:33:13.602Z,3.63
2023-03-12T03:36:01.718Z,3.42
2023-03-12T03:38:50.641Z,3.42
2023-03-12T03:41:38.185Z,3.58
2023-03-12T03:44:24.389Z,3.10
2023-03-12T03:47:10.952Z,2.92
2023-03-12T03:49:58.863Z,3.25
2023-03-12T03:52:45.476Z,3.30
2023-03-12T03:55:32.220Z,3.60
2023-03-12T03:58:18.805Z,3.40
2023-03-12T04:01:06.172Z,3.90
2023-03-12T04:03:52.771Z,3.30
2023-03-12T04:06:40.495Z,3.80
2023-03-12T04:09:27.000Z,2.92
2023-03-12T04:12:13.172Z,3.88
2023-03-12T04:15:01.426Z,2.97
2023-03-12T04:17:48.276Z,3.42
2023-03-12T04:20:34.894Z,3.65
2023-03-12T04:23:22.591Z,4.10
2023-03-12T04:26:09.938Z,3.75
2023-03-12T04:28:56.534Z,3.42
2023-03-12T04:31:43.079Z,3.78
2023-03-12T04:34:29.554Z,3.92
2023-03-12T04:37:16.435Z,3.72
2023-03-12T04:40:07.840Z,4.88
2023-03-12T04:42:54.833Z,4.05
2023-03-12T04:45:42.627Z,3.40
2023-03-12T04:48:29.264Z,4.18
2023-03-12T04:51:15.865Z,4.10
2023-03-12T04:54:04.701Z,4.18
2023-03-12T04:56:52.987Z,3.45
2023-03-12T04:59:41.755Z,4.40
2023-03-12T05:02:28.744Z,4.07
2023-03-12T05:05:15.380Z,4.30
2023-03-12T05:08:01.537Z,4.85
2023-03-12T05:10:47.786Z,3.55
2023-03-12T05:13:38.032Z,3.88
2023-03-12T05:16:25.011Z,4.03
2023-03-12T05:19:11.564Z,3.78
2023-03-12T05:21:58.052Z,4.78
2023-03-12T05:24:44.491Z,3.83
2023-03-12T05:27:32.022Z,4.47
2023-03-12T05:30:20.441Z,4.43
2023-03-12T05:33:06.826Z,4.25
2023-03-12T05:35:53.724Z,3.40
2023-03-12T05:38:40.639Z,4.07
2023-03-12T05:41:29.924Z,3.80
2023-03-12T05:44:22.493Z,3.95
2023-03-12T05:47:13.794Z,3.83
2023-03-12T05:50:00.889Z,4.05
2023-03-12T05:52:50.358Z,4.20
2023-03-12T05:55:37.658Z,4.10
2023-03-12T05:58:24.359Z,3.85
2023-03-12T06:01:16.238Z,4.07
2023-03-12T06:04:04.916Z,3.88
2023-03-12T06:06:51.539Z,3.67
2023-03-12T06:09:38.024Z,3.97
2023-03-12T06:12:24.927Z,4.50
2023-03-12T06:15:12.154Z,4.68
2023-03-12T06:17:58.787Z,5.78
2023-03-12T06:20:46.714Z,4.93
2023-03-12T06:23:33.150Z,4.90
2023-03-12T06:26:21.031Z,6.10
2023-03-12T06:29:07.213Z,5.78
2023-03-12T06:31:53.857Z,5.50
2023-03-12T06:34:40.222Z,5.65
2023-03-12T06:37:28.120Z,5.95
2023-03-12T06:40:14.551Z,5.38
2023-03-12T06:43:00.759Z,6.53
2023-03-12T06:45:47.549Z,6.60
2023-03-12T06:48:36.775Z,6.13
2023-03-12T06:51:23.268Z,7.65
2023-03-12T06:54:10.901Z,6.80
2023-03-12T06:56:59.263Z,7.47
2023-03-12T06:59:45.547Z,7.68
2023-03-12T07:02:31.860Z,9.45
2023-03-12T07:05:18.406Z,7.68
2023-03-12T07:08:04.953Z,7.88
2023-03-12T07:10:52.481Z,7.82
2023-03-12T07:13:38.840Z,8.20
2023-03-12T07:16:25.447Z,8.18
2023-03-12T07:19:12.014Z,9.60
2023-03-12T07:21:58.481Z,9.48
2023-03-12T07:24:44.678Z,9.50
2023-03-12T07:27:32.207Z,8.05
2023-03-12T07:30:18.949Z,9.85
2023-03-12T07:33:06.393Z,10.27
2023-03-12T07:35:52.655Z,9.75
2023-03-12T07:38:39.054Z,10.55
2023-03-12T07:41:25.569Z,9.93
2023-03-12T07:44:13.397Z,10.23
2023-03-12T07:47:09.761Z,10.23
2023-03-12T07:50:03.388Z,10.10
2023-03-12T07:52:50.074Z,13.30
2023-03-12T07:55:36.457Z,12.85
2023-03-12T07:58:23.206Z,11.65
2023-03-12T08:01:10.849Z,12.00
2023-03-12T08:03:57.540Z,11.32
2023-03-12T08:06:44.456Z,12.55
2023-03-12T08:09:30.750Z,12.95
2023-03-12T08:12:17.198Z,12.23
2023-03-12T08:15:03.765Z,13.50
2023-03-12T08:17:51.347Z,14.23
2023-03-12T08:20:37.761Z,14.05
2023-03-12T08:23:24.597Z,14.45
2023-03-12T08:26:10.702Z,13.98
2023-03-12T08:28:57.154Z,15.35
2023-03-12T08:32:01.564Z,15.90
2023-03-12T08:34:51.653Z,15.65
2023-03-12T08:37:38.189Z,16.60
2023-03-12T08:40:24.690Z,18.10
2023-03-12T08:43:10.744Z,20.45
2023-03-12T08:45:57.977Z,19.15
2023-03-12T08:48:44.609Z,20.27
2023-03-12T08:51:32.332Z,18.83
2023-03-12T08:54:19.400Z,20.15
2023-03-12T08:57:06.063Z,18.08
2023-03-12T08:59:52.489Z,18.58
2023-03-12T09:02:39.368Z,17.52
2023-03-12T09:05:26.108Z,18.02
2023-03-12T09:08:13.581Z,17.25
2023-03-12T09:10:59.999Z,18.20
2023-03-12T09:16:52.964Z,19.80
2023-03-12T09:19:39.366Z,23.08
2023-03-12T09:22:25.525Z,20.85
2023-03-12T09:25:13.680Z,22.55
2023-03-12T09:28:02.078Z,22.80
2023-03-12T09:30:48.887Z,23.05
2023-03-12T09:33:35.934Z,23.40
2023-03-12T09:36:22.275Z,24.58
2023-03-12T09:39:08.863Z,24.33
2023-03-12T09:41:56.835Z,25.35
2023-03-12T09:44:46.706Z,24.90
2023-03-12T09:47:36.492Z,25.48
2023-03-12T09:50:27.930Z,25.63
2023-03-12T09:53:20.949Z,25.35
2023-03-12T09:56:13.465Z,25.50
2023-03-12T09:59:02.248Z,27.48
2023-03-12T10:01:53.321Z,25.10
2023-03-12T10:04:58.596Z,26.52
2023-03-12T10:07:53.241Z,24.73
2023-03-12T10:10:54.888Z,24.42
2023-03-12T10:13:53.780Z,24.10
2023-03-12T10:16:55.496Z,22.40
2023-03-12T10:20:02.208Z,22.45
2023-03-12T10:22:57.173Z,20.80
2023-03-12T10:25:51.954Z,20.75
2023-03-12T10:28:43.271Z,20.67
2023-03-12T10:31:35.705Z,19.98
2023-03-12T10:34:30.738Z,20.33
2023-03-12T10:37:22.067Z,20.35
2023-03-12T10:40:16.342Z,20.58
2023-03-12T10:43:03.471Z,22.17
2023-03-12T10:46:00.957Z,21.85
2023-03-12T10:48:47.476Z,19.42
2023-03-12T10:51:54.194Z,17.05
2023-03-12T10:54:44.740Z,15.18
2023-03-12T10:57:41.172Z,14.48
2023-03-12T11:00:29.829Z,12.13
2023-03-12T11:03:22.383Z,12.23
2023-03-12T11:06:15.773Z,12.18
2023-03-12T11:09:17.484Z,11.15
2023-03-12T11:12:23.175Z,10.23
2023-03-12T11:15:23.604Z,9.88
2023-03-12T11:18:36.091Z,9.95
2023-03-12T11:21:25.556Z,9.02
2023-03-12T11:24:17.261Z,10.05
2023-03-12T11:27:06.950Z,9.93
2023-03-12T11:29:55.353Z,9.07
2023-03-12T11:32:46.326Z,10.82
2023-03-12T11:35:46.426Z,10.30
2023-03-12T11:38:39.348Z,10.10
2023-03-12T11:41:40.554Z,9.57
2023-03-12T11:44:33.523Z,9.73
2023-03-12T11:47:40.765Z,9.45
2023-03-12T11:50:34.341Z,9.00
2023-03-12T11:53:34.240Z,8.50
2023-03-12T11:56:30.586Z,9.05
2023-03-12T11:59:36.832Z,7.47
2023-03-12T12:02:41.725Z,7.75
2023-03-12T12:05:37.525Z,9.35
2023-03-12T12:08:44.887Z,8.40
2023-03-12T12:11:41.743Z,6.75
2023-03-12T12:14:42.109Z,7.90
2023-03-12T12:20:28.818Z,6.82
2023-03-12T12:23:23.728Z,6.35
2023-03-12T12:26:13.413Z,6.45
2023-03-12T12:29:17.521Z,6.00
2023-03-12T12:32:06.927Z,6.00
2023-03-12T12:35:14.263Z,6.73
2023-03-12T12:38:06.164Z,7.20
2023-03-12T12:40:56.510Z,6.63
2023-03-12T12:43:47.659Z,6.70
2023-03-12T12:46:39.030Z,7.68
2023-03-12T12:49:30.528Z,6.43
2023-03-12T12:52:20.194Z,6.97
2023-03-12T12:55:15.628Z,6.75
2023-03-12T12:58:05.833Z,7.45
2023-03-12T13:00:55.561Z,7.65
2023-03-12T13:03:44.687Z,8.50
2023-03-12T13:06:55.321Z,6.50
2023-03-12T13:09:43.435Z,6.60
2023-03-12T13:12:32.666Z,7.70
2023-03-12T13:15:40.023Z,7.45
2023-03-12T13:18:28.747Z,7.18
2023-03-12T13:21:25.493Z,6.07
2023-03-12T13:24:23.542Z,6.95
2023-03-12T13:27:18.994Z,6.55
2023-03-12T13:30:40.231Z,6.40
2023-03-12T13:33:40.933Z,6.53
2023-03-12T13:36:30.667Z,6.07
2023-03-12T13:39:28.836Z,5.85
2023-03-12T13:42:37.750Z,5.65
2023-03-12T13:45:27.971Z,6.10
2023-03-12T13:48:18.073Z,5.22
2023-03-12T13:51:16.316Z,5.22
2023-03-12T13:54:04.871Z,5.75
2023-03-12T13:56:58.521Z,4.72
2023-03-12T13:59:46.650Z,5.43
2023-03-12T14:02:37.713Z,4.90
2023-03-12T14:05:24.296Z,5.50
2023-03-12T14:08:27.781Z,5.43
2023-03-12T14:11:24.710Z,5.68
2023-03-12T14:14:45.763Z,6.07
2023-03-12T14:17:34.489Z,5.30
2023-03-12T14:20:23.095Z,5.60
2023-03-12T14:23:16.358Z,6.38
2023-03-12T14:26:04.544Z,4.85
2023-03-12T14:28:58.661Z,4.45
2023-03-12T14:31:46.024Z,5.15
2023-03-12T14:34:39.652Z,4.88
2023-03-12T14:37:31.641Z,6.20
2023-03-12T14:40:25.352Z,4.80
2023-03-12T14:43:23.613Z,5.35
2023-03-12T14:46:18.835Z,5.05
2023-03-12T14:49:05.188Z,5.03
2023-03-12T14:51:51.516Z,5.57
2023-03-12T14:54:39.631Z,5.97
2023-03-12T14:57:25.956Z,5.10
2023-03-12T15:00:24.348Z,5.35
2023-03-12T15:03:16.882Z,5.50
2023-03-12T15:06:03.129Z,5.63
2023-03-12T15:08:49.954Z,5.35
2023-03-12T15:11:38.566Z,4.97
2023-03-12T15:14:28.185Z,5.20
2023-03-12T15:17:17.901Z,5.22
2023-03-12T15:20:16.215Z,5.25
2023-03-12T15:23:04.517Z,4.47
2023-03-12T15:26:09.758Z,4.78
2023-03-12T15:28:57.737Z,4.53
2023-03-12T15:31:45.081Z,6.43
2023-03-12T15:34:34.106Z,5.30
2023-03-12T15:37:32.381Z,4.80
2023-03-12T15:40:23.278Z,4.65
2023-03-12T15:43:19.122Z,5.10
2023-03-12T15:46:08.007Z,7.40
2023-03-12T15:49:00.294Z,5.18
2023-03-12T15:51:59.726Z,6.45
2023-03-12T15:55:04.661Z,5.40
2023-03-12T15:57:52.915Z,6.05
2023-03-12T16:00:44.540Z,6.88
2023-03-12T16:03:31.280Z,5.78
2023-03-12T16:06:23.204Z,5.93
2023-03-12T16:09:15.787Z,6.82
2023-03-12T16:12:04.026Z,5.75
2023-03-12T16:14:50.741Z,7.00
2023-03-12T16:17:37.629Z,5.55
2023-03-12T16:20:26.276Z,5.93
2023-03-12T16:23:12.862Z,5.70
2023-03-12T16:26:00.124Z,5.85
2023-03-12T16:28:51.231Z,6.15
2023-03-12T16:31:37.807Z,6.05
2023-03-12T16:34:24.113Z,5.38
2023-03-12T16:37:11.956Z,5.82
2023-03-12T16:40:00.095Z,5.72
2023-03-12T16:42:49.731Z,6.88
2023-03-12T16:45:38.430Z,6.10
2023-03-12T16:48:26.376Z,5.53
2023-03-12T16:51:15.724Z,6.13
2023-03-12T16:54:10.311Z,5.20
2023-03-12T16:56:58.012Z,6.25
2023-03-12T16:59:44.569Z,5.75
2023-03-12T17:02:32.722Z,5.22
2023-03-12T17:05:19.213Z,5.28
2023-03-12T17:08:05.929Z,6.30
2023-03-12T17:10:52.396Z,7.78
2023-03-12T17:13:38.568Z,7.05
2023-03-12T17:16:26.019Z,6.68
2023-03-12T17:19:14.189Z,7.22
2023-03-12T17:22:01.586Z,6.55
2023-03-12T17:24:47.848Z,7.40
2023-03-12T17:27:34.215Z,7.20
2023-03-12T17:30:21.997Z,7.28
2023-03-12T17:33:10.790Z,7.00
2023-03-12T17:36:00.527Z,6.57
2023-03-12T17:38:48.000Z,6.90
2023-03-12T17:41:35.800Z,6.47
2023-03-12T17:44:22.068Z,6.38
2023-03-12T17:47:08.229Z,5.88
2023-03-12T17:49:54.383Z,4.22
2023-03-12T17:52:42.291Z,3.80
2023-03-12T17:55:28.766Z,4.22
2023-03-12T17:58:15.036Z,3.65
2023-03-12T18:01:01.230Z,3.85
2023-03-12T18:03:47.932Z,2.63
2023-03-12T18:06:34.460Z,3.22
2023-03-12T18:09:22.069Z,3.97
2023-03-12T18:12:09.598Z,2.92
2023-03-12T18:14:56.184Z,3.17
2023-03-12T18:17:44.512Z,2.30
2023-03-12T18:20:38.644Z,2.83
2023-03-12T18:23:26.485Z,2.25
2023-03-12T18:26:15.848Z,2.72
2023-03-12T18:29:02.600Z,2.42
2023-03-12T18:31:49.204Z,2.80
2023-03-12T18:34:35.793Z,3.05
2023-03-12T18:37:23.018Z,2.80
2023-03-12T18:40:10.920Z,2.10
2023-03-12T18:43:00.262Z,3.03
2023-03-12T18:45:47.300Z,2.80
2023-03-12T18:48:33.601Z,2.05
2023-03-12T18:51:20.557Z,2.30
2023-03-12T18:54:07.043Z,2.25
2023-03-12T18:56:53.421Z,2.63
2023-03-12T18:59:45.113Z,2.58
2023-03-12T19:02:31.350Z,2.45
2023-03-12T19:05:18.296Z,3.10
2023-03-12T19:08:04.994Z,2.97
2023-03-12T19:10:51.290Z,2.35
2023-03-12T19:13:38.343Z,2.95
2023-03-12T19:16:26.132Z,3.95
2023-03-12T19:19:14.634Z,3.50
2023-03-12T19:22:02.087Z,3.30
2023-03-12T19:24:48.404Z,4.38
2023-03-12T19:27:35.102Z,6.40
2023-03-12T19:30:21.318Z,4.20
2023-03-12T19:33:08.936Z,5.80
2023-03-12T19:35:56.268Z,4.82
2023-03-12T19:38:43.008Z,5.63
2023-03-12T19:41:29.128Z,4.85
2023-03-12T19:44:15.424Z,5.10
2023-03-12T19:47:02.243Z,4.90
2023-03-12T19:49:49.955Z,5.30
2023-03-12T19:52:36.387Z,5.00
2023-03-12T19:55:23.278Z,6.03
2023-03-12T19:58:12.229Z,4.72
2023-03-12T20:01:00.374Z,4.35
2023-03-12T20:03:47.020Z,4.68
2023-03-12T20:06:34.834Z,4.25
2023-03-12T20:09:21.073Z,4.82
2023-03-12T20:12:07.938Z,5.03
2023-03-12T20:14:54.002Z,5.00
2023-03-12T20:17:40.496Z,4.93
2023-03-12T20:20:26.995Z,4.88
2023-03-12T20:23:14.647Z,4.35
2023-03-12T20:26:01.112Z,5.32
2023-03-12T20:28:47.617Z,4.20
2023-03-12T20:31:34.144Z,5.68
2023-03-12T20:34:20.407Z,4.55
2023-03-12T20:37:07.053Z,4.60
2023-03-12T20:39:54.762Z,4.75
2023-03-12T20:42:41.604Z,5.25
2023-03-12T20:45:27.642Z,5.25
2023-03-12T20:48:14.013Z,4.53
2023-03-12T20:51:00.572Z,4.82
2023-03-12T20:53:47.143Z,4.95
2023-03-12T20:56:34.876Z,4.43
2023-03-12T20:59:21.320Z,4.38
2023-03-12T21:02:08.360Z,5.45
2023-03-12T21:04:54.674Z,4.18
2023-03-12T21:07:41.542Z,4.75
2023-03-12T21:10:28.439Z,4.70
2023-03-12T21:13:16.624Z,4.55
2023-03-12T21:16:06.297Z,6.00
2023-03-12T21:18:56.832Z,5.20
2023-03-12T21:24:29.147Z,5.38
2023-03-12T21:27:15.597Z,5.50
2023-03-12T21:30:03.282Z,4.15
2023-03-12T21:32:49.901Z,5.45
2023-03-12T21:35:36.548Z,5.90
2023-03-12T21:38:22.742Z,5.15
2023-03-12T21:41:11.163Z,6.05
2023-03-12T21:44:01.899Z,5.10
2023-03-12T21:46:49.301Z,4.75
2023-03-12T21:49:36.152Z,5.07
2023-03-12T21:52:22.633Z,5.70
2023-03-12T21:55:10.058Z,6.20
2023-03-12T21:57:56.318Z,5.30
2023-03-12T22:00:42.872Z,5.68
2023-03-12T22:03:30.548Z,5.75
2023-03-12T22:06:17.509Z,6.03
2023-03-12T22:09:03.912Z,5.85
2023-03-12T22:11:50.304Z,5.22
2023-03-12T22:14:36.754Z,7.82
2023-03-12T22:17:22.891Z,5.72
2023-03-12T22:20:12.213Z,5.75
2023-03-12T22:22:58.554Z,5.47
2023-03-12T22:25:44.840Z,5.35
2023-03-12T22:28:32.113Z,6.60
2023-03-12T22:31:19.328Z,5.70
2023-03-12T22:34:05.949Z,6.60
2023-03-12T22:36:53.644Z,4.68
2023-03-12T22:39:40.888Z,6.65
2023-03-12T22:42:27.350Z,6.28
2023-03-12T22:45:13.889Z,6.70
2023-03-12T22:48:00.327Z,5.68
2023-03-12T22:50:54.029Z,6.22
2023-03-12T22:53:41.675Z,5.78
2023-03-12T22:56:28.306Z,5.90
2023-03-12T22:59:14.532Z,6.50
2023-03-12T23:02:00.877Z,5.50
2023-03-12T23:04:47.178Z,6.53
2023-03-12T23:07:33.741Z,5.60
2023-03-12T23:10:21.620Z,5.68
2023-03-12T23:13:09.258Z,5.63
2023-03-12T23:15:55.672Z,6.55
2023-03-12T23:18:42.883Z,5.72
2023-03-12T23:21:29.958Z,5.20
2023-03-12T23:24:15.937Z,5.63
2023-03-12T23:27:03.737Z,5.72
2023-03-12T23:29:49.762Z,6.18
2023-03-12T23:32:36.081Z,5.43
2023-03-12T23:35:22.747Z,5.00
2023-03-12T23:38:09.198Z,5.47
2023-03-12T23:41:00.239Z,5.40
2023-03-12T23:43:47.897Z,5.28
2023-03-12T23:46:34.822Z,5.10
2023-03-12T23:49:21.066Z,5.93
2023-03-12T23:52:07.789Z,4.97
2023-03-12T23:54:53.981Z,4.95
2023-03-12T23:57:40.155Z,4.75
